Antler, North Dakota
Current Conditions -  °F | °C
As of 12:58 PM on Monday 20 Oct 2014 (Local Time) from KMIB Reporting Station
Clear Clear  
Wind Chill: 20°   Ceiling: Unl
Heat Index: 20°   Visibility: 10mi
Dew Point:   Wind: 20mph
Humidity: 31%   Direction: 190°S
Pressure: 29.96"   Gusts: NA
Location:  48.97°N, 101.28°W
Report Text: KMIB 201758Z AUTO 19017KT 10SM CLR 20/02 A2996 RMK AO2 SLP154 T02020024 10202 20009 $
Loading
Personal Weather Stations






























Interactive Weather Map
Tropical Storm Tracking
New forecast layout! Learn more

10-Day Weather Forecast

Advertisements
Track Severe Weather on mobile